MMNL/NLD METAR and TAF weather

Enter ICAO airport designator
Station Type Date Time Source
MMNL METAR 2019/08/25 13:08 UTC NOAA

MMNL 251308Z RTD 00000KT 8SM SKC 26/23 A2988 RMK HZY RTS


Station Type Date Time Source
MMNL Decoded METAR 2019/08/25 13:08 UTC NOAA

Station name not available
Aug 25, 2019 - 09:08 AM EDT / 2019.08.25 1308 UTC
Wind: Calm:0
Visibility: 8 mile(s):0
Sky conditions: clear
Temperature: 78 F (26 C)
Dew Point: 73 F (23 C)
Relative Humidity: 83%
Pressure (altimeter): 29.88 in. Hg (1011 hPa)
ob: MMNL 251308Z RTD 00000KT 8SM SKC 26/23 A2988 RMK HZY RTS
cycle: 13

Station Type Date Time Source
MMNL TAF 2019/08/25 06:39 UTC NOAA

TAF MMNL 250533Z 2506/2606 12010KT P6SM SCT080 BKN200
TEMPO 2510/2514 5SM HZ BKN020 BKN200
FM251900 14010KT P6SM SCT200
BECMG 2601/2602 12006KT

Example: see airport list